Home > Products > Valid Products > TAF

000
FTUS41 KLWX 010600 AAA
TAFIAD
TAF AMD
KIAD 010648Z 0107/0212 33003KT P6SM BKN006 OVC025
     FM011000 VRB03KT 5SM BR SCT003 OVC015
     FM011200 VRB03KT 4SM BR BKN005
     FM011300 06004KT P6SM BKN020
     FM011500 05004KT P6SM BKN045
     FM012000 VRB03KT P6SM SCT040 SCT150
     FM020600 VRB03KT P6SM SCT025 BKN060=



000
FTUS41 KLWX 010500
TAFCHO
TAF
KCHO 010538Z 0106/0206 00000KT 3SM BR FEW005 OVC060
     FM010900 00000KT 2SM BR SCT008 BKN020
     FM011300 VRB03KT P6SM SCT008 BKN020
     FM011400 VRB03KT P6SM BKN035=



000
FTUS41 KLWX 010500
TAFDCA
TAF
KDCA 010538Z 0106/0206 02005KT P6SM -RA BKN015 OVC120
      TEMPO 0107/0110 VRB04KT 5SM BR SCT009 BKN035
     FM011000 07004KT P6SM SCT003 BKN030
     FM011200 06004KT P6SM SCT008 BKN010
     FM011300 05004KT P6SM SCT008 BKN015
     FM011500 05005KT P6SM BKN040
     FM011900 05005KT P6SM SCT040 SCT100=



000
FTUS41 KLWX 010500
TAFMRB
TAF
KMRB 010538Z 0106/0206 01003KT 4SM BR SCT006 BKN110
     FM010700 00000KT 3SM BR SCT008 BKN060
     FM010900 00000KT 2SM BR SCT003 BKN020
      TEMPO 0109/0112 00000KT 1/4SM FG OVC001
     FM011300 VRB03KT P6SM SCT008 BKN015
     FM011400 11004KT P6SM BKN030
     FM011600 12004KT P6SM BKN060=



000
FTUS41 KLWX 010500
TAFMTN
TAF
KMTN 010538Z 0106/0206 NIL=



000
FTUS41 KLWX 010500
TAFBWI
TAF
KBWI 010538Z 0106/0212 06004KT P6SM SCT008 BKN030
      TEMPO 0107/0110 VRB04KT 5SM BR BKN008 BKN035
     FM011200 05005KT 5SM BR SCT008 BKN010
     FM011600 05005KT P6SM BKN035
     FM011800 05005KT P6SM SCT060
     FM020600 VRB03KT P6SM SCT035 BKN060=



000
FTUS41 KLWX 010500
TAFIAD
TAF
KIAD 010538Z 0106/0212 02007KT P6SM -RA FEW006 OVC120
     FM010700 VRB03KT 6SM -RA BR SCT005 OVC080
     FM011000 VRB03KT 5SM BR SCT003 OVC015
     FM011200 VRB03KT 4SM BR BKN005
     FM011300 06004KT P6SM BKN020
     FM011500 05004KT P6SM BKN045
     FM012000 VRB03KT P6SM SCT040 SCT150
     FM020600 VRB03KT P6SM SCT025 BKN060=



000
FTUS41 KLWX 010300 AAA
TAFBWI
TAF AMD
KBWI 010339Z 0104/0206 00000KT 4SM -TSRA BR BKN015CB OVC025
     FM010400 VRB03KT 5SM -RA BR SCT015 OVC030
     FM010500 VRB03KT P6SM FEW009 OVC020
     FM010900 VRB03KT P6SM BKN008
     FM011400 04005KT P6SM BKN020
     FM011700 03006KT P6SM BKN040
     FM012000 05006KT P6SM SCT050
     FM020300 08004KT P6SM BKN090=



000
FTUS41 KLWX 010100 AAA
TAFDCA
TAF AMD
KDCA 010108Z 0101/0124 20004KT P6SM FEW040 SCT060
      TEMPO 0102/0103 30006KT 5SM -SHRA BKN030
     FM010400 00000KT P6SM BKN035
     FM011000 03005KT 5SM BR BKN010
     FM011400 04005KT P6SM BKN015
     FM011600 04005KT P6SM BKN025
     FM011700 02005KT P6SM BKN040
     FM011800 01005KT P6SM SCT050=



000
FTUS41 KLWX 010100 AAA
TAFIAD
TAF AMD
KIAD 010107Z 0101/0206 30009KT P6SM SCT030 BKN100
      TEMPO 0101/0102 3SM -SHRA BKN025
     FM010300 00000KT 5SM -SHRA BR BKN045
     FM010400 00000KT 3SM BR BKN060
     FM011000 00000KT 3SM BR BKN003
     FM011300 VRB03KT 5SM BR BKN015
     FM011500 VRB03KT P6SM BKN020
     FM011700 VRB03KT P6SM BKN045
     FM011800 VRB03KT P6SM SCT050
     FM012100 02004KT P6SM SCT250=



000
FTUS41 KLWX 302300
TAFMTN
TAF
KMTN 302336Z 0100/0124 00000KT P6SM BKN250
     FM010700 VRB03KT P6SM OVC030
     FM010800 00000KT P6SM OVC020
     FM011000 VRB03KT P6SM OVC008
     FM011400 02004KT P6SM BKN015
     FM011700 VRB03KT P6SM BKN035
     FM012000 VRB03KT P6SM SCT050
      AMD NOT SKED 0102/0112=



000
FTUS41 KLWX 302300
TAFCHO
TAF
KCHO 302336Z 0100/0124 00000KT P6SM SCT060
     FM010200 00000KT 3SM BR BKN060
     FM010500 00000KT 2SM BR BKN020
     FM010700 00000KT 1SM BR BKN003
     FM010900 00000KT 1/2SM FG BKN003
     FM011200 00000KT 3/4SM BR BKN003
     FM011500 00000KT P6SM SCT020
     FM011700 00000KT P6SM SCT150=



000
FTUS41 KLWX 302300
TAFDCA
TAF
KDCA 302336Z 0100/0124 11004KT P6SM BKN250
     FM010400 00000KT P6SM BKN035
     FM011000 03005KT 5SM BR BKN010
     FM011400 04005KT P6SM BKN015
     FM011600 04005KT P6SM BKN025
     FM011700 02005KT P6SM BKN040
     FM011800 01005KT P6SM SCT050=



000
FTUS41 KLWX 302300
TAFIAD
TAF
KIAD 302336Z 0100/0206 VRB03KT P6SM BKN250
     FM010100 00000KT P6SM BKN050
     FM010300 00000KT 5SM -SHRA BR BKN045
     FM010400 00000KT 3SM BR BKN060
     FM011000 00000KT 3SM BR BKN003
     FM011700 VRB03KT P6SM BKN045
     FM011800 VRB03KT P6SM SCT050
     FM012100 02004KT P6SM SCT250=



000
FTUS41 KLWX 302300
TAFBWI
TAF
KBWI 302336Z 0100/0206 VRB03KT P6SM BKN250
     FM010400 VRB03KT P6SM BKN045
     FM010800 VRB03KT P6SM OVC030
     FM011000 VRB03KT P6SM BKN008
     FM011400 04005KT P6SM BKN020
     FM011700 03006KT P6SM BKN040
     FM012000 05006KT P6SM SCT050
     FM020300 08004KT P6SM BKN090=



000
FTUS41 KLWX 302300
TAFMRB
TAF
KMRB 302336Z 0100/0124 00000KT P6SM -SHRA VCTS BKN060CB
      TEMPO 0100/0101 3SM -SHRA BKN025
     FM010100 00000KT 6SM -SHRA BKN060
     FM010200 00000KT P6SM BKN090
     FM010400 00000KT 3SM BR BKN050
     FM010500 00000KT 2SM BR BKN060
     FM011400 00000KT 3SM BR BKN010
     FM011600 VRB03KT P6SM BKN025
     FM011700 VRB03KT P6SM SCT070=



000
FTUS41 KLWX 302100 AAB
TAFMRB
TAF AMD
KMRB 302158Z 3022/0118 10006KT P6SM SCT250
     FM302230 15006KT P6SM VCTS SCT035CB BKN060
     FM010000 VRB03KT P6SM BKN060
     FM010400 00000KT 2SM BR BKN060
     FM010900 00000KT 1SM BR BKN001
     FM011300 00000KT 2SM BR BKN003
     FM011500 00000KT P6SM BKN015
     FM011600 VRB03KT P6SM BKN025=



000
FTUS41 KLWX 302000 AAA
TAFDCA
TAF AMD
KDCA 302053Z 3021/0118 11005KT P6SM FEW250
     FM010300 VRB03KT P6SM BKN045
     FM010600 00000KT 5SM BR BKN030
     FM010700 VRB03KT 5SM BR BKN010
     FM011500 05005KT P6SM BKN015
     FM011600 04005KT P6SM BKN025=



000
FTUS41 KLWX 302000 AAA
TAFIAD
TAF AMD
KIAD 302053Z 3021/0124 13005KT P6SM SCT015
     FM010000 VRB03KT P6SM BKN050
     FM010400 00000KT 3SM BR BKN060
     FM010700 00000KT 3SM BR BKN003
     FM011400 02004KT 6SM BR BKN008
     FM011600 02004KT P6SM BKN025
     FM011800 VRB03KT P6SM BKN050=



000
FTUS41 KLWX 302000 AAA
TAFMRB
TAF AMD
KMRB 302053Z 3021/0118 11006KT P6SM SCT250
     FM302300 VRB03KT P6SM BKN060
     FM010400 00000KT 2SM BR BKN060
     FM010900 00000KT 1SM BR BKN001
     FM011300 00000KT 2SM BR BKN003
     FM011500 00000KT P6SM BKN015
     FM011600 VRB03KT P6SM BKN025=



000
FTUS41 KLWX 302000 AAA
TAFBWI
TAF AMD
KBWI 302053Z 3021/0124 11005KT P6SM FEW250
     FM010300 VRB03KT P6SM BKN045
     FM010600 00000KT 6SM BR OVC025
     FM010800 VRB03KT 6SM BR OVC008
     FM011500 05006KT P6SM BKN015
     FM011600 04006KT P6SM BKN025
     FM011800 03006KT P6SM BKN050=



000
FTUS41 KLWX 302000 AAA
TAFCHO
TAF AMD
KCHO 302053Z 3021/0118 12005KT P6SM BKN015
     FM302300 00000KT P6SM BKN110
     FM010100 00000KT 5SM BR BKN060
     FM010300 00000KT 2SM BR BKN045
     FM010600 00000KT 1/2SM FG BKN008
     FM011200 00000KT 1 1/2SM BR BKN003
     FM011400 00000KT 1 1/2SM BR BKN008
     FM011600 00000KT P6SM BKN050=



000
FTUS41 KLWX 301700 RRA
TAFCHO
TAF
KCHO 301743Z 3018/0118 VRB03KT 3SM BR OVC008
     FM302000 00000KT P6SM BKN040
     FM010600 00000KT 1/2SM FG OVC008
     FM011200 00000KT 3SM BR OVC015=



000
FTUS41 KLWX 301700 RRA
TAFMRB
TAF
KMRB 301743Z 3018/0118 VRB04KT P6SM SCT040
     FM010600 00000KT 5SM BR BKN015
     FM010900 00000KT 1SM BR OVC008
     FM011400 00000KT P6SM BKN015
     FM011600 VRB03KT P6SM BKN025=



000
FTUS41 KLWX 301700 RRA
TAFIAD
TAF
KIAD 301743Z 3018/0124 00000KT P6SM BKN012 OVC015
     FM302300 00000KT P6SM BKN040 BKN150
     FM010400 00000KT 5SM BR BKN040
     FM010700 00000KT 1SM BR BKN003
     FM011400 02004KT P6SM BKN025
     FM011800 VRB03KT P6SM BKN050=



000
FTUS41 KLWX 301700 RRA
TAFMTN
TAF
KMTN 301743Z 3018/0118 12005KT P6SM SCT020
     FM302200 12004KT P6SM SCT040
     FM010600 VRB03KT 3SM BR BKN010
     FM011400 03005KT P6SM BKN025=



000
FTUS41 KLWX 301700 RRA
TAFDCA
TAF
KDCA 301743Z 3018/0118 00000KT P6SM BKN020
     FM302200 11005KT P6SM SCT040
     FM010700 VRB03KT 5SM BR BKN010
     FM011400 05005KT P6SM BKN015
     FM011600 04005KT P6SM BKN035=



000
FTUS41 KLWX 301700 RRA
TAFBWI
TAF
KBWI 301743Z 3018/0124 00000KT P6SM SCT020
     FM302200 VRB03KT P6SM SCT040
     FM010800 VRB03KT 3SM BR BKN008
     FM011400 05006KT P6SM BKN015
     FM011600 04006KT P6SM BKN035=



000
FTUS41 KLWX 301500 AAB
TAFDCA
TAF AMD
KDCA 301503Z 3015/0112 00000KT P6SM OVC013
     FM301800 17005KT P6SM BKN050
     FM010100 11005KT P6SM BKN050 BKN150
     FM010800 02006KT P6SM OVC015=



000
FTUS41 KLWX 301500 AAA
TAFBWI
TAF AMD
KBWI 301503Z 3015/0118 18004KT P6SM BKN015 BKN120
     FM301700 15005KT P6SM BKN050
     FM010100 05004KT P6SM BKN050 BKN120
     FM010600 06003KT 3SM BR OVC015
     FM011400 04005KT P6SM OVC020=



000
FTUS41 KLWX 301500 AAB
TAFIAD
TAF AMD
KIAD 301503Z 3015/0118 VRB03KT P6SM OVC010
     FM301800 12004KT P6SM OVC050
     FM302100 10004KT P6SM BKN050 BKN150
     FM010400 VRB03KT 5SM BR BKN150
     FM010700 05004KT 2SM BR OVC015
     FM011300 02005KT P6SM BKN030=



000
FTUS41 KLWX 301400 AAC
TAFCHO
TAF AMD
KCHO 301446Z 3015/0112 00000KT 1 1/2SM BR OVC003
     FM301700 00000KT P6SM BKN050
     FM010000 00000KT P6SM SCT050
     FM010600 00000KT 6SM BR SCT250=



000
FTUS41 KLWX 301300 AAE
TAFMRB
TAF AMD
KMRB 301351Z 3014/0112 00000KT 3SM BR OVC002
     FM301500 00000KT 5SM BR OVC025
     FM301800 VRB03KT P6SM BKN050 BKN150
     FM010400 00000KT 3SM BR BKN250=



000
FTUS41 KLWX 301300 AAA
TAFDCA
TAF AMD
KDCA 301313Z 3013/0112 18005KT 5SM BR FEW008 OVC013
     FM301500 16005KT P6SM OVC050
     FM301900 12005KT P6SM BKN050 BKN150=



000
FTUS41 KLWX 301300 AAB
TAFCHO
TAF AMD
KCHO 301310Z 3013/0112 00000KT 2SM BR OVC002
      TEMPO 3013/3015 1SM BR
     FM301500 VRB03KT P6SM FEW050 FEW250
     FM010000 00000KT P6SM SCT050
     FM010600 00000KT 6SM BR SCT250=



000
FTUS41 KLWX 301300 AAA
TAFIAD
TAF AMD
KIAD 301307Z 3013/0118 00000KT 5SM BR BKN004 OVC010
     FM301400 00000KT P6SM BKN025 OVC050
     FM301900 10004KT P6SM OVC250=



000
FTUS41 KLWX 301300 AAA
TAFMTN
TAF AMD
KMTN 301302Z 3013/0112 00000KT 5SM BR SCT009 SCT016
     FM301400 00000KT P6SM FEW050 SCT090
     FM010300 09004KT P6SM BKN090=



000
FTUS41 KLWX 301300 AAD
TAFMRB
TAF AMD
KMRB 301301Z 3013/0112 00000KT 1/2SM FG VV001
     FM301400 00000KT P6SM FEW050 SCT250
     FM010000 00000KT 5SM BR BKN050
     FM010600 00000KT P6SM BKN250=



000
FTUS41 KLWX 301200 AAC
TAFMRB
TAF AMD
KMRB 301239Z 3013/0112 00000KT 1/2SM FG VV001
     FM301400 00000KT P6SM FEW050 SCT250
     FM010000 00000KT 5SM BR BKN050
     FM010600 00000KT P6SM BKN250=



000
FTUS41 KLWX 301200 AAB
TAFMRB
TAF AMD
KMRB 301216Z 3012/0112 00000KT 1 1/2SM BR BKN025
     FM301300 00000KT 3SM BR BKN025 OVC050
     FM301500 00000KT P6SM FEW050 SCT250
     FM010000 00000KT 5SM BR BKN050
     FM010600 00000KT P6SM BKN250=



000
FTUS41 KLWX 301100 AAA
TAFMRB
TAF AMD
KMRB 301151Z 3012/0112 00000KT 1/2SM FG BKN003 OVC025
      TEMPO 3012/3013 1/4SM FG
     FM301300 00000KT 3SM BR BKN025 OVC050
     FM301500 00000KT P6SM FEW050 SCT250
     FM010000 00000KT 5SM BR BKN050
     FM010600 00000KT P6SM BKN250=



000
FTUS41 KLWX 301100 AAA
TAFCHO
TAF AMD
KCHO 301150Z 3012/0112 00000KT 1/2SM FG OVC025
      TEMPO 3012/3013 1/4SM FG
     FM301300 00000KT 3SM BR BKN025 OVC050
     FM301500 VRB03KT P6SM FEW050 FEW250
     FM010000 00000KT P6SM SCT050
     FM010600 00000KT 6SM BR SCT250=



000
FTUS41 KLWX 301100
TAFIAD
TAF
KIAD 301120Z 3012/0118 00000KT 1/2SM FG OVC025
     FM301300 00000KT P6SM BKN025 OVC050=



000
FTUS41 KLWX 301100
TAFMTN
TAF
KMTN 301120Z 3012/0112 00000KT 3SM BR BKN003 OVC025
     FM301300 00000KT P6SM BKN025 OVC050
     FM301500 00000KT P6SM FEW050 SCT090
     FM010300 09004KT P6SM BKN090=



000
FTUS41 KLWX 301100
TAFMRB
TAF
KMRB 301120Z 3012/0112 00000KT 1/2SM FG BKN003 OVC025
     FM301300 00000KT 5SM BR BKN025 OVC050
     FM301500 00000KT P6SM FEW050 SCT250
     FM010000 00000KT 5SM BKN050
     FM010600 00000KT P6SM BKN250=



000
FTUS41 KLWX 301100
TAFBWI
TAF
KBWI 301120Z 3012/0118 00000KT 3SM BR OVC025
     FM301300 00000KT P6SM BKN025 OVC050=



000
FTUS41 KLWX 301100
TAFCHO
TAF
KCHO 301120Z 3012/0112 00000KT 1/2SM FG OVC025
     FM301300 00000KT 3SM BR BKN025 OVC050
     FM301500 VRB03KT P6SM FEW050 FEW250
     FM010000 00000KT P6SM SCT050
     FM010600 00000KT 6SM BR SCT250=



000
FTUS41 KLWX 301100
TAFDCA
TAF
KDCA 301120Z 3012/0112 00000KT 3SM BR OVC025
     FM301300 00000KT P6SM BKN025 OVC050=



000
FTUS41 KLWX 300800 AAB
TAFMRB
TAF AMD
KMRB 300856Z 3009/0106 VRB03KT 1/4SM FG VV001
     FM301000 VRB03KT 1/2SM FG FEW003 SCT025
     FM301300 VRB03KT 5SM BR FEW025 SCT050
     FM301500 VRB03KT P6SM FEW050 SCT250
     FM010400 VRB03KT 5SM BR BKN050=



000
FTUS41 KLWX 300800 AAA
TAFCHO
TAF AMD
KCHO 300856Z 3009/0106 VRB03KT 1/4SM FG VV001
     FM301000 VRB03KT 1/2SM FG FEW008 SCT025
     FM301300 VRB03KT 3SM BR FEW025 SCT050
     FM010000 VRB03KT P6SM SCT050=



000
FTUS41 KLWX 300800 AAA
TAFIAD
TAF AMD
KIAD 300856Z 3009/0112 21006KT 1/2SM FG VV002
     FM301000 VRB03KT 1SM BR FEW008 SCT025
     FM301300 VRB03KT P6SM FEW025 SCT050
     FM010000 VRB03KT P6SM BKN090=



000
FTUS41 KLWX 300800 AAB
TAFBWI
TAF AMD
KBWI 300856Z 3009/0112 VRB03KT 2SM BR SCT004 OVC008
     FM301000 VRB03KT 3SM BR FEW008 SCT025
     FM301300 VRB03KT P6SM FEW025 SCT050
     FM010300 VRB03KT P6SM BKN090=



000
FTUS41 KLWX 300800 AAA
TAFDCA
TAF AMD
KDCA 300856Z 3009/0106 20007KT P6SM OVC007
     FM301000 VRB03KT 3SM BR FEW008 SCT025
     FM301300 VRB03KT P6SM FEW025 SCT050
     FM010300 VRB03KT P6SM BKN090=



000
FTUS41 KLWX 300700 AAA
TAFBWI
TAF AMD
KBWI 300755Z 3008/0112 00000KT 5SM BR BKN004 BKN120 OVC220
     FM301000 VRB03KT 3SM BR BKN006 OVC010
     FM301300 VRB03KT P6SM FEW050 SCT090
     FM010300 VRB03KT P6SM BKN090=



000
FTUS41 KLWX 300700 AAA
TAFMRB
TAF AMD
KMRB 300752Z 3008/0106 00000KT 1/4SM FG VV003
     FM301000 00000KT 1/2SM FG SCT090
     FM301300 00000KT 5SM BR FEW050 SCT090
     FM301500 00000KT P6SM FEW050 SCT250=



000
FTUS41 KLWX 300500 RRA
TAFIAD
TAF
KIAD 300546Z 3006/0112 VRB03KT 2SM BR OVC006
     FM301000 00000KT 1SM BR SCT090
     FM301300 00000KT P6SM FEW050 SCT130
     FM302000 13006KT P6SM FEW050 SCT250
     FM010000 VRB03KT P6SM BKN090=



000
FTUS41 KLWX 300500 RRA
TAFBWI
TAF
KBWI 300546Z 3006/0112 00000KT P6SM BKN007 OVC090
     FM300900 VRB03KT P6SM SCT090
     FM301000 VRB03KT 3SM BR SCT090
     FM301300 VRB03KT P6SM FEW050 SCT090
     FM010300 VRB03KT P6SM BKN090=



000
FTUS41 KLWX 300500 RRA
TAFCHO
TAF
KCHO 300546Z 3006/0106 00000KT 1SM BR VV002
     FM300800 00000KT 1/2SM FG VV002
     FM301300 00000KT 3SM BR FEW050 SCT250
     FM301500 00000KT P6SM FEW050 FEW250
     FM010000 00000KT P6SM SCT050=



000
FTUS41 KLWX 300500 RRA
TAFMRB
TAF
KMRB 300546Z 3006/0106 VRB03KT P6SM SCT050
     FM300800 00000KT 2SM BR SCT050
     FM301000 00000KT 1/2SM FG SCT090
     FM301300 00000KT 5SM BR FEW050 SCT090
     FM301500 00000KT P6SM FEW050 SCT250=



000
FTUS41 KLWX 300500 RRA
TAFMTN
TAF
KMTN 300546Z 3006/0106 NIL=



000
FTUS41 KLWX 300500 RRA
TAFDCA
TAF
KDCA 300546Z 3006/0106 00000KT P6SM BKN008 OVC090
     FM300800 00000KT P6SM SCT090
     FM301000 VRB03KT 3SM BR SCT090
     FM301300 VRB03KT P6SM FEW050 SCT090
     FM010300 VRB03KT P6SM BKN090=



000
FTUS41 KLWX 300500 AAA
TAFIAD
TAF AMD
KIAD 300509Z 3005/0106 22006KT 6SM BR OVC010
     FM301000 00000KT 1SM BR SCT090
     FM301300 00000KT P6SM FEW050 SCT130
     FM302000 13006KT P6SM FEW050 SCT250
     FM010000 VRB03KT P6SM BKN090=



000
FTUS41 KLWX 300300 AAB
TAFCHO
TAF AMD
KCHO 300338Z 3004/3024 00000KT 1SM BR SCT002 SCT250
      TEMPO 3004/3007 1/2SM FG VV002
     FM301000 00000KT 1/2SM FG SCT250
     FM301300 00000KT 3SM BR FEW050 SCT250
     FM301500 00000KT P6SM FEW050 SCT250
     FM301900 14006KT P6SM FEW050 SCT250=



000
FTUS41 KLWX 300200 AAA
TAFCHO
TAF AMD
KCHO 300232Z 3003/3024 00000KT 2SM BR SCT250
     FM301000 00000KT 1/2SM FG SCT250
     FM301300 00000KT 3SM BR FEW050 SCT250
     FM301500 00000KT P6SM FEW050 SCT250
     FM301900 14006KT P6SM FEW050 SCT250=



000
FTUS41 KLWX 292300
TAFCHO
TAF
KCHO 292330Z 3000/3024 16003KT P6SM BKN090
     FM300400 00000KT P6SM SCT090
     FM300600 00000KT 2SM BR SCT250
     FM301000 00000KT 1/2SM FG SCT250
     FM301300 00000KT 3SM BR FEW050 SCT250
     FM301500 00000KT P6SM FEW050 SCT250
     FM301900 14006KT P6SM FEW050 SCT250=



000
FTUS41 KLWX 292300
TAFMRB
TAF
KMRB 292330Z 3000/3024 VRB03KT P6SM BKN090
     FM300300 00000KT P6SM SCT090
     FM300800 00000KT 2SM BR SCT050
     FM301000 00000KT 1/2SM FG SCT090
     FM301300 00000KT 5SM BR FEW050 SCT090
     FM301500 00000KT P6SM FEW050 SCT250
     FM301900 13006KT P6SM SCT050 BKN250=



000
FTUS41 KLWX 292300
TAFBWI
TAF
KBWI 292330Z 3000/0106 00000KT P6SM BKN090
     FM300900 VRB03KT P6SM SCT090
     FM301000 VRB03KT 3SM BR SCT090
     FM301300 VRB03KT P6SM FEW050 SCT090
     FM010300 VRB03KT P6SM BKN090=



000
FTUS41 KLWX 292300
TAFDCA
TAF
KDCA 292330Z 3000/3024 17003KT P6SM BKN090
     FM300800 00000KT P6SM SCT090
     FM301000 VRB03KT 3SM BR SCT090
     FM301300 VRB03KT P6SM FEW050 SCT090=



000
FTUS41 KLWX 292300
TAFMTN
TAF
KMTN 292330Z 3000/3024 VRB03KT P6SM BKN090
     FM300900 17004KT P6SM SCT090
     FM301000 16004KT 3SM BR SCT090
     FM301300 VRB03KT P6SM FEW050 SCT090
      AMD NOT SKED 3002/3012=



000
FTUS41 KLWX 292300
TAFIAD
TAF
KIAD 292330Z 3000/0106 19003KT P6SM BKN090
     FM300500 VRB03KT P6SM SCT090
     FM301000 00000KT 1SM BR SCT090
     FM301300 00000KT P6SM FEW050 SCT130
     FM302000 13006KT P6SM FEW050 SCT250
     FM010000 VRB03KT P6SM BKN090=



000
FTUS41 KLWX 292200 AAA
TAFMTN
TAF AMD
KMTN 292224Z 2922/3018 20003KT P6SM OVC100
     FM301100 VRB03KT 5SM BR OVC050
     FM301400 10003KT P6SM OVC100=



000
FTUS41 KLWX 292100 AAA
TAFIAD
TAF AMD
KIAD 292116Z 2921/3024 20005KT P6SM FEW050 OVC090
     FM301000 VRB03KT 5SM BR OVC050
     FM301400 11003KT P6SM OVC100=



000
FTUS41 KLWX 292100 AAA
TAFDCA
TAF AMD
KDCA 292116Z 2921/3018 20005KT P6SM OVC100
     FM301000 VRB03KT 5SM BR OVC050
     FM301300 10003KT P6SM OVC100=



000
FTUS41 KLWX 292100 AAA
TAFBWI
TAF AMD
KBWI 292116Z 2921/3024 21003KT P6SM -SHRA OVC100
     FM292300 VRB03KT P6SM OVC100
     FM301100 VRB03KT 5SM BR OVC050
     FM301400 10003KT P6SM OVC100=



000
FTUS41 KLWX 291700 RRA
TAFMTN
TAF
KMTN 291754Z 2918/3018 NIL=



000
FTUS41 KLWX 291700 RRA
TAFIAD
TAF
KIAD 291754Z 2918/3024 VRB03KT P6SM OVC090
     FM301000 VRB03KT 5SM BR OVC050
     FM301400 11003KT P6SM OVC100=



000
FTUS41 KLWX 291700 RRA
TAFDCA
TAF
KDCA 291754Z 2918/3018 20005KT P6SM OVC100
     FM301000 VRB03KT 5SM BR OVC050
     FM301300 10003KT P6SM OVC100=



000
FTUS41 KLWX 291700 RRA
TAFBWI
TAF
KBWI 291754Z 2918/3024 21003KT P6SM OVC120
     FM301100 VRB03KT 5SM BR OVC050
     FM301400 10003KT P6SM OVC100=



000
FTUS41 KLWX 291700 RRA
TAFMRB
TAF
KMRB 291754Z 2918/3018 VRB03KT P6SM BKN150
     FM300800 VRB03KT 5SM BR OVC030
     FM301400 13003KT P6SM OVC100=



000
FTUS41 KLWX 291700 RRA
TAFCHO
TAF
KCHO 291754Z 2918/3018 VRB03KT P6SM OVC050
     FM300900 VRB03KT 5SM BR OVC050
     FM301400 12004KT P6SM OVC100=



000
FTUS41 KLWX 291600 AAA
TAFCHO
TAF AMD
KCHO 291614Z 2916/3012 00000KT 6SM -RA OVC030
     FM291700 VRB03KT P6SM OVC130=



000
FTUS41 KLWX 291600 AAB
TAFIAD
TAF AMD
KIAD 291612Z 2916/3018 00000KT 6SM -RA OVC090
     FM291800 VRB03KT P6SM OVC130=



000
FTUS41 KLWX 291400 AAA
TAFIAD
TAF AMD
KIAD 291455Z 2915/3018 00000KT P6SM OVC130=



000
FTUS41 KLWX 291400 AAA
TAFBWI
TAF AMD
KBWI 291455Z 2915/3018 00000KT P6SM OVC130=



000
FTUS41 KLWX 291400 AAA
TAFDCA
TAF AMD
KDCA 291455Z 2915/3012 17005KT P6SM OVC130=



000
FTUS41 KLWX 291100 RRA
TAFCHO
TAF
KCHO 291142Z 2912/3012 VRB03KT P6SM BKN200=



000
FTUS41 KLWX 291100 RRA
TAFMTN
TAF
KMTN 291142Z 2912/3012 NIL=



000
FTUS41 KLWX 291100 RRA
TAFDCA
TAF
KDCA 291142Z 2912/3012 VRB03KT P6SM BKN130=



000
FTUS41 KLWX 291100 RRA
TAFMRB
TAF
KMRB 291142Z 2912/3012 VRB03KT P6SM BKN200=



000
FTUS41 KLWX 291100 RRA
TAFIAD
TAF
KIAD 291142Z 2912/3018 VRB03KT P6SM BKN130=



000
FTUS41 KLWX 291100 RRA
TAFBWI
TAF
KBWI 291142Z 2912/3018 VRB03KT P6SM BKN130=



000
FTUS41 KLWX 290800 AAA
TAFBWI
TAF AMD
KBWI 290855Z 2909/3012 VRB03KT P6SM BKN130=



000
FTUS41 KLWX 290800 AAA
TAFDCA
TAF AMD
KDCA 290855Z 2909/3006 VRB03KT P6SM BKN130=



000
FTUS41 KLWX 290800 AAA
TAFIAD
TAF AMD
KIAD 290855Z 2909/3012 VRB03KT P6SM BKN130
     FM300000 00000KT P6SM OVC250
     FM300800 17003KT 5SM BR BKN250=



000
FTUS41 KLWX 290500 RRA
TAFMRB
TAF
KMRB 290548Z 2906/3006 VRB03KT P6SM BKN200
     FM290900 00000KT 3SM BR BKN130
     FM291300 VRB03KT P6SM BKN130=



000
FTUS41 KLWX 290500 RRA
TAFMTN
TAF
KMTN 290548Z 2906/3006 NIL=



000
FTUS41 KLWX 290500 RRA
TAFBWI
TAF
KBWI 290548Z 2906/3012 00000KT P6SM SCT200 BKN250
     FM291800 19004KT P6SM BKN100=



000
FTUS41 KLWX 290500 RRA
TAFDCA
TAF
KDCA 290548Z 2906/3006 24003KT P6SM SCT140 BKN200
     FM291800 20004KT P6SM BKN100=



000
FTUS41 KLWX 290500 RRA
TAFCHO
TAF
KCHO 290548Z 2906/3006 VRB03KT P6SM BKN200
     FM291300 VRB03KT P6SM BKN130=



000
FTUS41 KLWX 290500 RRA
TAFIAD
TAF
KIAD 290548Z 2906/3012 VRB03KT P6SM SCT160 BKN250
     FM291400 20004KT P6SM BKN150
     FM300000 00000KT P6SM BKN120=



000
FTUS41 KLWX 282300
TAFMTN
TAF
KMTN 282332Z 2900/2924 19004KT P6SM SCT250
     FM290900 17005KT P6SM BKN130
      AMD NOT SKED 2902/2912=



000
FTUS41 KLWX 282300
TAFMRB
TAF
KMRB 282332Z 2900/2924 VRB03KT P6SM BKN250
     FM290600 00000KT 3SM BR BKN130
     FM290900 00000KT 1SM BR SCT002 BKN130
     FM291300 00000KT P6SM BKN130=



000
FTUS41 KLWX 282300
TAFDCA
TAF
KDCA 282332Z 2900/2924 VRB03KT P6SM SCT250
     FM291800 20004KT P6SM BKN100=



000
FTUS41 KLWX 282300
TAFBWI
TAF
KBWI 282332Z 2900/3006 VRB03KT P6SM SCT250
     FM291800 19004KT P6SM BKN100
     FM300300 17004KT P6SM SCT100
     FM300400 VRB03KT P6SM BKN100=



000
FTUS41 KLWX 282300
TAFCHO
TAF
KCHO 282332Z 2900/2924 00000KT P6SM BKN250
     FM290600 00000KT 3SM BR BKN130
     FM291300 00000KT P6SM BKN130=



000
FTUS41 KLWX 282300
TAFIAD
TAF
KIAD 282332Z 2900/3006 VRB03KT P6SM SCT250
     FM291800 20004KT P6SM BKN110
     FM300000 00000KT P6SM BKN120=



000
FTUS41 KLWX 282000 AAA
TAFBWI
TAF AMD
KBWI 282058Z 2821/2924 21004KT P6SM BKN250
     FM290400 00000KT P6SM BKN250
     FM291800 17006KT P6SM BKN130=



000
FTUS41 KLWX 282000 AAA
TAFDCA
TAF AMD
KDCA 282058Z 2821/2918 17004KT P6SM BKN250
     FM290500 00000KT P6SM BKN250=



000
FTUS41 KLWX 282000 AAA
TAFIAD
TAF AMD
KIAD 282058Z 2821/2924 20004KT P6SM BKN250
     FM290400 00000KT P6SM BKN250
     FM291800 21006KT P6SM BKN130=



000
FTUS41 KLWX 281700
TAFBWI
TAF
KBWI 281730Z 2818/2924 19004KT P6SM SCT250
     FM290400 00000KT P6SM BKN250
     FM291800 17006KT P6SM BKN130=



000
FTUS41 KLWX 281700
TAFCHO
TAF
KCHO 281730Z 2818/2918 17005KT P6SM SCT250
     FM290400 00000KT P6SM BKN130
     FM290600 00000KT 3SM BR BKN130
     FM291300 VRB03KT P6SM BKN130=



000
FTUS41 KLWX 281700
TAFMRB
TAF
KMRB 281730Z 2818/2918 18004KT P6SM SCT250
     FM290400 00000KT P6SM BKN130
     FM290600 00000KT 3SM BR BKN130
     FM290900 00000KT 1SM BR BKN130
     FM291300 VRB03KT P6SM BKN130=



000
FTUS41 KLWX 281700
TAFIAD
TAF
KIAD 281730Z 2818/2924 20004KT P6SM SCT250
     FM290400 00000KT P6SM BKN250
     FM291800 21006KT P6SM BKN130=



000
FTUS41 KLWX 281700
TAFMTN
TAF
KMTN 281730Z 2818/2918 15004KT P6SM SCT250
     FM290800 00000KT P6SM BKN130
     FM291700 19006KT P6SM BKN130=



000
FTUS41 KLWX 281700
TAFDCA
TAF
KDCA 281730Z 2818/2918 17004KT P6SM SCT250
     FM290500 00000KT P6SM BKN250=



000
FTUS41 KLWX 281400 AAA
TAFBWI
TAF AMD
KBWI 281441Z 2815/2918 00000KT P6SM FEW250
     FM281700 20004KT P6SM SCT250
     FM282300 00000KT P6SM SCT250=



000
FTUS41 KLWX 281400 AAA
TAFDCA
TAF AMD
KDCA 281441Z 2815/2912 00000KT P6SM FEW250
     FM281600 17005KT P6SM SCT250
     FM282300 18003KT P6SM SCT250=



000
FTUS41 KLWX 281400 AAA
TAFIAD
TAF AMD
KIAD 281441Z 2815/2918 00000KT P6SM FEW250
     FM281700 20004KT P6SM SCT250
     FM282300 00000KT P6SM SCT250=



000
FTUS41 KLWX 281200 AAA
TAFMRB
TAF AMD
KMRB 281258Z 2813/2912 00000KT P6SM FEW250
     FM281900 19005KT P6SM SCT250=



000
FTUS41 KLWX 281100
TAFCHO
TAF
KCHO 281138Z 2812/2912 00000KT P6SM FEW250
     FM281800 16006KT P6SM FEW250
     FM290100 00000KT P6SM BKN200=



000
FTUS41 KLWX 281100
TAFBWI
TAF
KBWI 281138Z 2812/2918 00000KT P6SM FEW250
     FM281700 20004KT P6SM FEW250
     FM282300 00000KT P6SM SCT250=



000
FTUS41 KLWX 281100
TAFIAD
TAF
KIAD 281138Z 2812/2918 00000KT P6SM FEW250
     FM281800 20004KT P6SM FEW250
     FM282300 00000KT P6SM SCT250=



000
FTUS41 KLWX 281100
TAFMTN
TAF
KMTN 281138Z 2812/2912 00000KT P6SM FEW250
     FM281900 20006KT P6SM FEW250
     FM290500 00000KT P6SM BKN200=



000
FTUS41 KLWX 281100
TAFMRB
TAF
KMRB 281138Z 2812/2912 00000KT 1/2SM FG VV001
     FM281300 00000KT 3SM BR BKN002
     FM281400 00000KT P6SM FEW250
     FM281900 19005KT P6SM SCT250=



000
FTUS41 KLWX 281100
TAFDCA
TAF
KDCA 281138Z 2812/2912 00000KT P6SM FEW250
     FM281600 17005KT P6SM FEW250
     FM282300 18003KT P6SM SCT250=



000
FTUS41 KLWX 281000 AAB
TAFIAD
TAF AMD
KIAD 281050Z 2811/2912 00000KT 1SM MIFG FEW250
     FM281200 22005KT P6SM FEW250
     FM290000 18003KT P6SM BKN200
     FM291000 VRB03KT P6SM OVC120=



000
FTUS41 KLWX 281000 AAA
TAFMRB
TAF AMD
KMRB 281036Z 2811/2906 00000KT 1SM BR FEW250
     FM281200 19004KT P6SM FEW250
     FM290000 VRB03KT P6SM BKN200=



000
FTUS41 KLWX 280900 AAA
TAFBWI
TAF AMD
KBWI 280908Z 2809/2912 00000KT P6SM SCT250
     FM281400 20004KT P6SM FEW250
     FM291100 VRB03KT P6SM BKN200=



000
FTUS41 KLWX 280900 AAA
TAFDCA
TAF AMD
KDCA 280907Z 2809/2906 00000KT P6SM SCT250
     FM281300 16004KT P6SM FEW250
     FM290000 19004KT P6SM BKN200=



000
FTUS41 KLWX 280900 AAA
TAFIAD
TAF AMD
KIAD 280907Z 2809/2912 00000KT 5SM MIFG FEW250
     FM281200 22005KT P6SM FEW250
     FM290000 18003KT P6SM BKN200
     FM291000 VRB03KT P6SM OVC120=



    US Dept of Commerce
    National Oceanic and Atmospheric Administration
    National Weather Service
    1325 East West Highway
    Silver Spring, MD 20910
    Page Author: NWS Internet Services Team
Disclaimer
Information Quality
Credits
Glossary
Privacy Policy
Freedom of Information Act (FOIA)
About Us
Career Opportunities